createdAt,value
2017-05-03T00:02:10.548Z,18.32
2017-05-03T00:04:38.808Z,18.74
2017-05-03T00:07:07.541Z,14.42
2017-05-03T00:09:35.758Z,20.22
2017-05-03T00:12:04.406Z,15.86
2017-05-03T00:14:32.628Z,20.24
2017-05-03T00:17:00.835Z,15.66
2017-05-03T00:19:29.077Z,15.90
2017-05-03T00:21:57.296Z,15.36
2017-05-03T00:24:25.520Z,19.46
2017-05-03T00:26:53.845Z,19.30
2017-05-03T00:29:22.072Z,21.26
2017-05-03T00:31:50.275Z,15.90
2017-05-03T00:34:18.516Z,19.22
2017-05-03T00:36:46.735Z,16.18
2017-05-03T00:39:14.950Z,16.34
2017-05-03T00:41:43.461Z,22.90
2017-05-03T00:44:29.165Z,16.60
2017-05-03T00:47:04.028Z,16.10
2017-05-03T00:49:32.642Z,17.70
2017-05-03T00:52:00.865Z,21.50
2017-05-03T00:54:29.113Z,19.42
2017-05-03T00:56:57.324Z,17.78
2017-05-03T00:59:25.941Z,16.08
2017-05-03T01:01:54.178Z,17.76
2017-05-03T01:04:22.797Z,16.74
2017-05-03T01:06:51.015Z,15.54
2017-05-03T01:09:19.537Z,17.50
2017-05-03T01:11:47.753Z,13.46
2017-05-03T01:14:15.971Z,16.46
2017-05-03T01:16:44.629Z,19.28
2017-05-03T01:19:12.852Z,15.46
2017-05-03T01:21:41.068Z,18.46
2017-05-03T01:24:09.313Z,18.90
2017-05-03T01:26:37.528Z,25.14
2017-05-03T01:29:05.748Z,17.38
2017-05-03T01:31:34.174Z,20.00
2017-05-03T01:34:02.389Z,20.78
2017-05-03T01:36:30.605Z,18.38
2017-05-03T01:38:58.855Z,20.50
2017-05-03T01:41:27.070Z,16.96
2017-05-03T01:43:55.290Z,19.78
2017-05-03T01:46:23.545Z,17.56
2017-05-03T01:48:52.153Z,20.40
2017-05-03T01:51:20.374Z,22.28
2017-05-03T01:53:48.861Z,18.32
2017-05-03T01:56:17.475Z,18.32
2017-05-03T01:58:45.693Z,17.50
2017-05-03T02:01:13.940Z,17.66
2017-05-03T02:03:42.160Z,16.60
2017-05-03T02:06:10.776Z,17.82
2017-05-03T02:08:39.025Z,19.48
2017-05-03T02:11:08.000Z,17.96
2017-05-03T02:13:36.216Z,18.92
2017-05-03T02:16:04.568Z,18.76
2017-05-03T02:18:34.011Z,18.56
2017-05-03T02:21:02.232Z,17.18
2017-05-03T02:23:30.869Z,24.74
2017-05-03T02:25:59.092Z,20.34
2017-05-03T02:28:27.705Z,26.74
2017-05-03T02:30:55.952Z,20.00
2017-05-03T02:33:25.080Z,17.14
2017-05-03T02:35:53.310Z,13.12
2017-05-03T02:38:21.945Z,16.42
2017-05-03T02:40:50.165Z,16.42
2017-05-03T02:43:18.788Z,28.26
2017-05-03T02:45:47.033Z,19.44
2017-05-03T02:48:15.648Z,21.86
2017-05-03T02:50:43.877Z,36.96
2017-05-03T02:53:12.519Z,19.40
2017-05-03T02:55:40.748Z,24.18
2017-05-03T02:58:08.972Z,19.96
2017-05-03T03:00:37.625Z,29.18
2017-05-03T03:03:05.851Z,22.10
2017-05-03T03:05:34.068Z,17.70
2017-05-03T03:08:02.297Z,21.32
2017-05-03T03:10:30.516Z,17.48
2017-05-03T03:12:58.739Z,17.62
2017-05-03T03:15:26.985Z,23.26
2017-05-03T03:17:55.201Z,18.24
2017-05-03T03:20:23.814Z,21.92
2017-05-03T03:22:52.074Z,18.38
2017-05-03T03:25:20.292Z,20.56
2017-05-03T03:27:48.599Z,17.74
2017-05-03T03:30:16.850Z,19.10
2017-05-03T03:32:45.073Z,18.44
2017-05-03T03:35:13.293Z,20.46
2017-05-03T03:37:41.536Z,19.08
2017-05-03T03:40:09.756Z,22.30
2017-05-03T03:42:37.976Z,21.86
2017-05-03T03:45:06.472Z,17.56
2017-05-03T03:47:34.698Z,21.14
2017-05-03T03:50:03.317Z,21.64
2017-05-03T03:52:32.372Z,19.28
2017-05-03T03:55:00.981Z,23.98
2017-05-03T03:57:29.200Z,20.74
2017-05-03T03:59:57.467Z,26.64
2017-05-03T04:02:25.679Z,20.48
2017-05-03T04:04:54.291Z,15.96
2017-05-03T04:07:22.872Z,20.16
2017-05-03T04:09:51.094Z,17.56
2017-05-03T04:12:19.327Z,15.76
2017-05-03T04:14:47.572Z,19.12
2017-05-03T04:17:15.798Z,15.52
2017-05-03T04:19:44.022Z,18.76
2017-05-03T04:22:12.267Z,16.86
2017-05-03T04:24:40.483Z,18.44
2017-05-03T04:27:08.893Z,20.26
2017-05-03T04:29:37.401Z,19.34
2017-05-03T04:32:05.627Z,17.60
2017-05-03T04:34:33.845Z,14.62
2017-05-03T04:37:02.097Z,18.56
2017-05-03T04:39:30.331Z,16.92
2017-05-03T04:41:58.547Z,17.96
2017-05-03T04:44:26.961Z,21.16
2017-05-03T04:46:55.577Z,17.32
2017-05-03T04:49:23.800Z,15.52
2017-05-03T04:51:52.044Z,18.20
2017-05-03T04:54:20.272Z,16.40
2017-05-03T04:56:48.494Z,17.96
2017-05-03T04:59:17.016Z,17.68
2017-05-03T05:01:45.631Z,15.16
2017-05-03T05:04:13.870Z,18.74
2017-05-03T05:06:42.588Z,13.44
2017-05-03T05:09:10.813Z,14.82
2017-05-03T05:11:39.029Z,19.26
2017-05-03T05:14:08.996Z,17.58
2017-05-03T05:16:37.209Z,18.52
2017-05-03T05:19:06.046Z,15.90
2017-05-03T05:21:34.268Z,18.48
2017-05-03T05:24:02.482Z,22.20
2017-05-03T05:26:30.700Z,16.58
2017-05-03T05:28:59.032Z,14.68
2017-05-03T05:31:27.253Z,15.78
2017-05-03T05:33:55.473Z,13.38
2017-05-03T05:36:23.700Z,18.24
2017-05-03T05:38:51.923Z,18.06
2017-05-03T05:41:20.153Z,15.44
2017-05-03T05:43:48.409Z,19.04
2017-05-03T05:46:17.037Z,17.00
2017-05-03T05:48:45.247Z,17.28
2017-05-03T05:51:13.513Z,18.64
2017-05-03T05:53:41.737Z,25.34
2017-05-03T05:56:09.973Z,20.08
2017-05-03T05:58:38.211Z,17.84
2017-05-03T06:01:06.423Z,19.60
2017-05-03T06:03:35.045Z,15.88
2017-05-03T06:06:03.375Z,16.16
2017-05-03T06:08:32.008Z,16.82
2017-05-03T06:11:00.350Z,19.34
2017-05-03T06:13:28.974Z,15.14
2017-05-03T06:15:57.209Z,19.28
2017-05-03T06:18:25.849Z,20.28
2017-05-03T06:20:54.083Z,17.46
2017-05-03T06:23:22.303Z,17.50
2017-05-03T06:25:50.540Z,20.32
2017-05-03T06:28:18.774Z,27.22
2017-05-03T06:30:47.389Z,16.92
2017-05-03T06:33:15.728Z,26.38
2017-05-03T06:35:44.447Z,18.84
2017-05-03T06:38:12.683Z,18.76
2017-05-03T06:40:40.926Z,18.94
2017-05-03T06:43:09.158Z,16.00
2017-05-03T06:45:37.380Z,16.74
2017-05-03T06:48:05.795Z,22.16
2017-05-03T06:50:34.433Z,19.70
2017-05-03T06:53:02.652Z,17.86
2017-05-03T06:55:31.558Z,19.42
2017-05-03T06:57:59.795Z,20.24
2017-05-03T07:00:28.008Z,20.78
2017-05-03T07:02:56.508Z,22.58
2017-05-03T07:05:24.747Z,18.42
2017-05-03T07:07:53.976Z,21.36
2017-05-03T07:10:22.250Z,17.52
2017-05-03T07:12:50.485Z,19.74
2017-05-03T07:15:19.101Z,24.98
2017-05-03T07:17:47.625Z,19.94
2017-05-03T07:20:15.840Z,19.46
2017-05-03T07:22:44.083Z,18.90
2017-05-03T07:25:12.744Z,20.08
2017-05-03T07:27:40.983Z,19.80
2017-05-03T07:30:09.216Z,22.44
2017-05-03T07:32:37.860Z,22.70
2017-05-03T07:35:06.094Z,20.34
2017-05-03T07:37:34.551Z,20.98
2017-05-03T07:40:03.289Z,21.94
2017-05-03T07:42:31.533Z,23.96
2017-05-03T07:44:59.749Z,22.26
2017-05-03T07:47:28.282Z,20.24
2017-05-03T07:49:56.522Z,22.36
2017-05-03T07:52:24.748Z,26.36
2017-05-03T07:54:53.009Z,21.38
2017-05-03T07:57:21.231Z,24.68
2017-05-03T07:59:49.467Z,22.90
2017-05-03T08:02:17.901Z,19.88
2017-05-03T08:04:46.522Z,20.72
2017-05-03T08:07:14.766Z,18.60
2017-05-03T08:09:43.436Z,19.16
2017-05-03T08:12:11.659Z,21.42
2017-05-03T08:14:39.886Z,31.02
2017-05-03T08:17:08.537Z,19.22
2017-05-03T08:19:36.765Z,17.18
2017-05-03T08:22:05.008Z,20.60
2017-05-03T08:24:33.271Z,21.64
2017-05-03T08:27:01.506Z,18.18
2017-05-03T08:29:29.733Z,19.90
2017-05-03T08:31:58.233Z,18.52
2017-05-03T08:34:26.845Z,20.10
2017-05-03T08:36:55.074Z,24.54
2017-05-03T08:39:23.720Z,19.42
2017-05-03T08:41:51.944Z,19.24
2017-05-03T08:44:20.570Z,20.76
2017-05-03T08:46:48.817Z,21.10
2017-05-03T08:49:17.046Z,18.10
2017-05-03T08:51:45.268Z,16.40
2017-05-03T08:54:13.672Z,19.38
2017-05-03T08:56:41.897Z,18.12
2017-05-03T08:59:10.518Z,18.66
2017-05-03T09:01:39.012Z,17.22
2017-05-03T09:04:07.235Z,18.92
2017-05-03T09:06:35.460Z,17.52
2017-05-03T09:09:03.795Z,18.62
2017-05-03T09:11:32.025Z,21.18
2017-05-03T09:14:00.249Z,17.14
2017-05-03T09:16:28.588Z,17.04
2017-05-03T09:18:57.200Z,17.46
2017-05-03T09:21:25.423Z,18.44
2017-05-03T09:23:53.757Z,20.60
2017-05-03T09:26:21.986Z,19.94
2017-05-03T09:28:51.018Z,16.76
2017-05-03T09:31:19.268Z,16.30
2017-05-03T09:33:47.879Z,15.18
2017-05-03T09:36:16.124Z,16.26
2017-05-03T09:38:44.765Z,16.10
2017-05-03T09:41:12.983Z,20.34
2017-05-03T09:43:41.209Z,17.86
2017-05-03T09:46:09.452Z,18.74
2017-05-03T09:48:37.681Z,18.12
2017-05-03T09:51:05.921Z,20.30
2017-05-03T09:53:34.180Z,18.10
2017-05-03T09:56:02.899Z,20.40
2017-05-03T09:58:31.782Z,21.70
2017-05-03T10:01:00.193Z,19.48
2017-05-03T10:03:28.815Z,20.90
2017-05-03T10:05:58.085Z,17.18
2017-05-03T10:08:26.808Z,19.96
2017-05-03T10:10:55.037Z,18.74
2017-05-03T10:13:25.140Z,17.74
2017-05-03T10:15:53.790Z,18.70
2017-05-03T10:18:22.021Z,23.26
2017-05-03T10:20:50.468Z,21.72
2017-05-03T10:23:18.804Z,24.02
2017-05-03T10:25:47.033Z,21.42
2017-05-03T10:28:15.660Z,25.20
2017-05-03T10:30:43.922Z,20.42
2017-05-03T10:33:12.158Z,23.58
2017-05-03T10:35:40.782Z,22.94
2017-05-03T10:38:09.040Z,21.84
2017-05-03T10:40:37.275Z,25.34
2017-05-03T10:43:05.582Z,26.56
2017-05-03T10:45:33.832Z,22.82
2017-05-03T10:48:02.057Z,24.54
2017-05-03T10:50:30.294Z,23.68
2017-05-03T10:52:58.933Z,21.68
2017-05-03T10:55:27.173Z,22.34
2017-05-03T10:57:55.400Z,20.66
2017-05-03T11:00:23.681Z,23.72
2017-05-03T11:02:52.311Z,25.14
2017-05-03T11:05:20.543Z,20.24
2017-05-03T11:07:49.199Z,20.78
2017-05-03T11:10:17.439Z,18.90
2017-05-03T11:12:45.669Z,24.04
2017-05-03T11:15:14.318Z,23.86
2017-05-03T11:17:43.048Z,23.08
2017-05-03T11:20:11.669Z,18.56
2017-05-03T11:22:40.072Z,18.68
2017-05-03T11:25:08.299Z,17.50
2017-05-03T11:27:36.520Z,18.26
2017-05-03T11:30:04.795Z,16.72
2017-05-03T11:32:33.015Z,17.26
2017-05-03T11:35:01.232Z,15.44
2017-05-03T11:37:30.154Z,15.14
2017-05-03T11:39:58.770Z,12.12
2017-05-03T11:42:26.999Z,15.76
2017-05-03T11:44:55.245Z,14.58
2017-05-03T11:47:23.474Z,17.56
2017-05-03T11:49:52.083Z,12.78
2017-05-03T11:52:20.550Z,15.42
2017-05-03T11:54:48.781Z,18.22
2017-05-03T11:57:17.011Z,16.78
2017-05-03T11:59:45.262Z,10.40
2017-05-03T12:02:13.491Z,15.64
2017-05-03T12:04:41.720Z,13.54
2017-05-03T12:07:09.979Z,17.38
2017-05-03T12:09:38.200Z,14.24
2017-05-03T12:12:06.415Z,12.68
2017-05-03T12:14:35.216Z,15.66
2017-05-03T12:17:03.445Z,13.14
2017-05-03T12:19:31.667Z,11.58
2017-05-03T12:21:59.912Z,17.20
2017-05-03T12:24:28.534Z,14.04
2017-05-03T12:26:57.660Z,13.04
2017-05-03T12:29:25.905Z,10.86
2017-05-03T12:31:54.135Z,14.54
2017-05-03T12:34:22.752Z,10.66
2017-05-03T12:36:51.253Z,12.32
2017-05-03T12:39:19.482Z,11.16
2017-05-03T12:41:48.092Z,12.38
2017-05-03T12:44:16.327Z,13.94
2017-05-03T12:46:44.944Z,11.42
2017-05-03T12:49:13.172Z,9.96
2017-05-03T12:51:41.396Z,13.20
2017-05-03T12:54:09.632Z,10.26
2017-05-03T12:56:38.240Z,10.90
2017-05-03T12:59:06.739Z,8.88
2017-05-03T13:01:34.964Z,13.74
2017-05-03T13:04:03.577Z,9.52
2017-05-03T13:06:32.082Z,11.66
2017-05-03T13:09:00.299Z,11.70
2017-05-03T13:11:28.918Z,12.48
2017-05-03T13:13:57.420Z,12.78
2017-05-03T13:16:25.631Z,9.56
2017-05-03T13:18:54.252Z,12.26
2017-05-03T13:21:22.484Z,17.52
2017-05-03T13:23:50.697Z,8.54
2017-05-03T13:26:18.912Z,11.44
2017-05-03T13:28:47.417Z,7.10
2017-05-03T13:31:16.033Z,12.64
2017-05-03T13:33:44.610Z,8.46
2017-05-03T13:36:13.368Z,10.26
2017-05-03T13:38:41.976Z,8.42
2017-05-03T13:41:10.192Z,10.10
2017-05-03T13:43:38.439Z,13.10
2017-05-03T13:46:06.669Z,10.24
2017-05-03T13:48:35.548Z,12.72
2017-05-03T13:51:03.922Z,8.64
2017-05-03T13:53:32.152Z,13.06
2017-05-03T13:56:00.383Z,12.98
2017-05-03T13:58:29.168Z,9.82
2017-05-03T14:00:57.797Z,9.30
2017-05-03T14:03:26.022Z,8.40
2017-05-03T14:05:54.981Z,12.72
2017-05-03T14:08:23.178Z,8.20
2017-05-03T14:10:51.789Z,11.36
2017-05-03T14:13:20.307Z,12.04
2017-05-03T14:15:48.541Z,13.92
2017-05-03T14:18:17.279Z,9.60
2017-05-03T14:20:45.554Z,9.68
2017-05-03T14:23:13.783Z,9.70
2017-05-03T14:25:41.993Z,12.78
2017-05-03T14:28:10.415Z,9.14
2017-05-03T14:30:38.636Z,22.76
2017-05-03T14:33:06.870Z,10.88
2017-05-03T14:35:35.131Z,11.40
2017-05-03T14:38:03.763Z,7.90
2017-05-03T14:40:31.999Z,7.42
2017-05-03T14:43:00.242Z,10.54
2017-05-03T14:45:28.855Z,9.98
2017-05-03T14:47:57.083Z,6.58
2017-05-03T14:50:25.335Z,11.98
2017-05-03T14:52:53.770Z,9.14
2017-05-03T14:55:21.999Z,11.92
2017-05-03T14:57:50.252Z,10.78
2017-05-03T15:00:18.481Z,8.12
2017-05-03T15:02:47.106Z,9.54
2017-05-03T15:05:15.352Z,8.84
2017-05-03T15:07:43.574Z,9.42
2017-05-03T15:10:11.791Z,9.58
2017-05-03T15:12:40.046Z,7.90
2017-05-03T15:15:08.260Z,8.12
2017-05-03T15:17:37.141Z,10.76
2017-05-03T15:20:05.548Z,9.42
2017-05-03T15:22:33.778Z,12.26
2017-05-03T15:25:03.005Z,7.62
2017-05-03T15:27:31.614Z,8.02
2017-05-03T15:29:59.801Z,11.02
2017-05-03T15:32:28.028Z,7.34
2017-05-03T15:34:56.270Z,8.58
2017-05-03T15:37:24.880Z,10.64
2017-05-03T15:39:53.111Z,9.30
2017-05-03T15:42:21.428Z,8.34
2017-05-03T15:44:49.650Z,8.04
2017-05-03T15:47:17.865Z,7.70
2017-05-03T15:49:47.095Z,7.94
2017-05-03T15:52:15.314Z,7.58
2017-05-03T15:54:44.283Z,9.62
2017-05-03T15:57:12.660Z,14.08
2017-05-03T15:59:40.886Z,9.32
2017-05-03T16:02:09.119Z,8.34
2017-05-03T16:04:37.756Z,8.24
2017-05-03T16:07:05.975Z,13.62
2017-05-03T16:09:34.581Z,10.92
2017-05-03T16:12:02.824Z,5.98
2017-05-03T16:14:31.451Z,9.90
2017-05-03T16:17:00.308Z,9.46
2017-05-03T16:19:29.454Z,8.18
2017-05-03T16:21:57.691Z,7.26
2017-05-03T16:24:25.901Z,8.54
2017-05-03T16:26:54.219Z,11.44
2017-05-03T16:29:22.715Z,6.38
2017-05-03T16:31:52.625Z,9.36
2017-05-03T16:34:21.352Z,7.26
2017-05-03T16:36:49.576Z,8.28
2017-05-03T16:39:18.192Z,9.06
2017-05-03T16:41:46.707Z,6.46
2017-05-03T16:44:14.921Z,6.46
2017-05-03T16:46:43.140Z,6.52
2017-05-03T16:49:11.403Z,8.00
2017-05-03T16:51:39.633Z,7.66
2017-05-03T16:54:08.252Z,6.14
2017-05-03T16:56:36.574Z,9.54
2017-05-03T16:59:04.796Z,7.54
2017-05-03T17:01:33.023Z,9.96
2017-05-03T17:04:01.522Z,10.68
2017-05-03T17:06:29.745Z,10.04
2017-05-03T17:08:57.968Z,13.64
2017-05-03T17:11:26.242Z,8.08
2017-05-03T17:13:54.692Z,9.24
2017-05-03T17:16:22.915Z,8.78
2017-05-03T17:18:51.317Z,10.28
2017-05-03T17:21:19.538Z,8.80
2017-05-03T17:23:48.158Z,9.62
2017-05-03T17:26:16.659Z,7.38
2017-05-03T17:28:44.880Z,9.46
2017-05-03T17:31:13.485Z,7.82
2017-05-03T17:33:41.734Z,9.30
2017-05-03T17:36:10.355Z,8.76
2017-05-03T17:38:38.588Z,6.62
2017-05-03T17:41:07.383Z,8.98
2017-05-03T17:43:35.600Z,8.82
2017-05-03T17:46:03.829Z,20.06
2017-05-03T17:48:32.604Z,12.28
2017-05-03T17:51:00.807Z,11.56
2017-05-03T17:53:29.028Z,6.20
2017-05-03T17:55:57.426Z,7.06
2017-05-03T17:58:26.052Z,8.40
2017-05-03T18:00:54.501Z,8.84
2017-05-03T18:03:23.027Z,9.30
2017-05-03T18:05:51.233Z,13.22
2017-05-03T18:08:19.457Z,9.08
2017-05-03T18:10:47.719Z,7.28
2017-05-03T18:13:15.970Z,9.20
2017-05-03T18:15:44.194Z,10.90
2017-05-03T18:18:13.515Z,9.68
2017-05-03T18:20:41.749Z,16.02
2017-05-03T18:23:10.198Z,10.64
2017-05-03T18:25:38.707Z,7.34
2017-05-03T18:28:06.936Z,11.18
2017-05-03T18:30:35.558Z,8.00
2017-05-03T18:33:04.914Z,9.72
2017-05-03T18:35:33.534Z,14.04
2017-05-03T18:38:01.770Z,19.66
2017-05-03T18:40:30.403Z,8.74
2017-05-03T18:42:58.632Z,9.30
2017-05-03T18:45:27.252Z,9.36
2017-05-03T18:47:55.503Z,17.44
2017-05-03T18:50:24.637Z,9.70
2017-05-03T18:52:52.848Z,11.64
2017-05-03T18:55:21.866Z,10.22
2017-05-03T18:57:50.074Z,8.44
2017-05-03T19:00:18.532Z,7.56
2017-05-03T19:02:47.244Z,9.06
2017-05-03T19:05:15.823Z,8.40
2017-05-03T19:07:44.894Z,9.42
2017-05-03T19:10:13.150Z,8.34
2017-05-03T19:12:41.373Z,8.68
2017-05-03T19:15:09.599Z,16.76
2017-05-03T19:17:38.087Z,9.76
2017-05-03T19:20:06.294Z,8.20
2017-05-03T19:22:35.503Z,12.14
2017-05-03T19:25:03.744Z,17.42
2017-05-03T19:27:31.977Z,10.74
2017-05-03T19:30:00.579Z,12.46
2017-05-03T19:32:29.338Z,7.90
2017-05-03T19:34:58.448Z,17.66
2017-05-03T19:37:26.684Z,11.66
2017-05-03T19:39:55.313Z,7.64
2017-05-03T19:42:23.894Z,11.78
2017-05-03T19:44:52.125Z,6.60
2017-05-03T19:47:20.355Z,9.14
2017-05-03T19:49:48.576Z,6.26
2017-05-03T19:52:16.781Z,10.28
2017-05-03T19:54:45.292Z,12.10
2017-05-03T19:57:13.743Z,12.72
2017-05-03T19:59:41.941Z,9.30
2017-05-03T20:02:11.364Z,14.10
2017-05-03T20:04:41.278Z,12.28
2017-05-03T20:07:09.739Z,9.28
2017-05-03T20:09:38.598Z,6.60
2017-05-03T20:12:06.800Z,7.18
2017-05-03T20:14:35.299Z,11.86
2017-05-03T20:17:04.506Z,10.44
2017-05-03T20:19:33.108Z,9.94
2017-05-03T20:22:01.510Z,10.16
2017-05-03T20:24:29.732Z,8.94
2017-05-03T20:26:57.940Z,8.96
2017-05-03T20:29:26.272Z,7.98
2017-05-03T20:31:54.486Z,5.68
2017-05-03T20:34:22.776Z,10.40
2017-05-03T20:36:51.261Z,6.42
2017-05-03T20:39:19.418Z,8.66
2017-05-03T20:41:47.628Z,7.48
2017-05-03T20:44:15.866Z,12.86
2017-05-03T20:46:44.076Z,10.36
2017-05-03T20:49:12.288Z,7.72
2017-05-03T20:51:41.184Z,7.36
2017-05-03T20:54:09.394Z,6.02
2017-05-03T20:56:37.824Z,8.42
2017-05-03T20:59:06.617Z,5.08
2017-05-03T21:01:35.219Z,5.40
2017-05-03T21:04:03.420Z,7.04
2017-05-03T21:06:31.756Z,7.12
2017-05-03T21:08:59.964Z,7.68
2017-05-03T21:11:28.171Z,12.72
2017-05-03T21:13:56.413Z,6.74
2017-05-03T21:16:24.616Z,13.16
2017-05-03T21:18:52.828Z,6.82
2017-05-03T21:21:21.091Z,7.96
2017-05-03T21:23:49.483Z,9.78
2017-05-03T21:26:18.698Z,7.72
2017-05-03T21:28:46.914Z,12.34
2017-05-03T21:31:15.158Z,7.98
2017-05-03T21:33:43.370Z,8.98
2017-05-03T21:36:11.976Z,7.32
2017-05-03T21:38:40.249Z,6.68
2017-05-03T21:41:08.452Z,9.70
2017-05-03T21:43:36.661Z,8.12
2017-05-03T21:46:04.904Z,5.88
2017-05-03T21:48:33.108Z,7.08
2017-05-03T21:51:02.689Z,7.94
2017-05-03T21:53:31.669Z,7.30
2017-05-03T21:55:59.879Z,11.32
2017-05-03T21:58:28.482Z,8.72
2017-05-03T22:00:56.823Z,6.28
2017-05-03T22:03:25.031Z,11.54
2017-05-03T22:05:53.240Z,6.36
2017-05-03T22:08:21.477Z,8.08
2017-05-03T22:10:49.689Z,5.26
2017-05-03T22:13:17.895Z,8.58
2017-05-03T22:15:46.308Z,6.08
2017-05-03T22:18:14.516Z,6.32
2017-05-03T22:20:42.728Z,8.36
2017-05-03T22:23:11.361Z,6.36
2017-05-03T22:25:39.573Z,8.52
2017-05-03T22:28:07.784Z,14.40
2017-05-03T22:30:36.035Z,11.82
2017-05-03T22:33:04.638Z,8.84
2017-05-03T22:35:32.858Z,7.62
2017-05-03T22:38:01.410Z,8.46
2017-05-03T22:40:29.627Z,14.62
2017-05-03T22:42:57.841Z,10.10
2017-05-03T22:45:26.323Z,7.42
2017-05-03T22:47:54.553Z,9.54
2017-05-03T22:50:22.781Z,9.98
2017-05-03T22:52:51.176Z,8.20
2017-05-03T22:55:19.381Z,5.94
2017-05-03T22:57:48.005Z,8.00
2017-05-03T23:00:16.492Z,10.48
2017-05-03T23:02:44.702Z,9.06
2017-05-03T23:05:12.904Z,5.86
2017-05-03T23:07:41.129Z,5.10
2017-05-03T23:10:09.345Z,8.78
2017-05-03T23:12:37.952Z,8.68
2017-05-03T23:15:06.276Z,7.66
2017-05-03T23:17:34.492Z,7.02
2017-05-03T23:20:02.714Z,5.78
2017-05-03T23:22:31.193Z,5.90
2017-05-03T23:25:00.399Z,11.16
2017-05-03T23:27:28.620Z,5.16
2017-05-03T23:29:57.024Z,8.64
2017-05-03T23:32:25.691Z,7.22
2017-05-03T23:34:53.901Z,5.18
2017-05-03T23:37:22.124Z,6.70
2017-05-03T23:39:50.341Z,12.22
2017-05-03T23:42:18.558Z,7.36
2017-05-03T23:44:47.037Z,5.92
2017-05-03T23:47:15.253Z,9.22
2017-05-03T23:49:43.461Z,7.14
2017-05-03T23:52:11.715Z,4.88
2017-05-03T23:54:39.921Z,9.12
2017-05-03T23:57:08.523Z,7.94
2017-05-03T23:59:36.754Z,7.38
